Sequoia National Park, California
Current Conditions -  °F | °C
As of 8:15 PM on Friday 31 Oct 2014 (Local Time) from KVIS Reporting Station
NA  
Wind Chill: 61°   Ceiling: NA
Heat Index: 61°   Visibility: 2.5mi
Dew Point: 45°   Wind: 21mph
Humidity: 55%   Direction: 320°NW
Pressure: 29.77"   Gusts: 26mph
Location:  36.5932°N, 118.838°W
Report Text: KVIS 010315Z 32018G23KT 2 1/2SM 16/07 A2977 RMK AO1
Loading
Personal Weather Stations






























Interactive Weather Map New forecast layout! Learn more

10-Day Weather Forecast

Advertisements
Track Severe Weather on mobile